createdAt,value
2023-01-28T00:00:49.177Z,3.80
2023-01-28T00:03:15.926Z,4.13
2023-01-28T00:05:43.001Z,4.00
2023-01-28T00:08:10.196Z,3.60
2023-01-28T00:10:39.518Z,4.10
2023-01-28T00:13:07.296Z,3.97
2023-01-28T00:15:34.123Z,4.57
2023-01-28T00:18:00.681Z,3.93
2023-01-28T00:20:27.231Z,5.10
2023-01-28T00:22:53.778Z,4.50
2023-01-28T00:25:20.664Z,4.83
2023-01-28T00:27:47.260Z,4.20
2023-01-28T00:30:14.103Z,3.97
2023-01-28T00:32:42.457Z,4.40
2023-01-28T00:35:10.481Z,4.20
2023-01-28T00:37:37.736Z,4.97
2023-01-28T00:40:04.576Z,4.50
2023-01-28T00:42:31.106Z,3.97
2023-01-28T00:44:57.805Z,3.70
2023-01-28T00:47:24.348Z,4.57
2023-01-28T00:49:50.881Z,4.07
2023-01-28T00:52:17.544Z,5.07
2023-01-28T00:54:44.144Z,4.30
2023-01-28T00:57:10.726Z,3.90
2023-01-28T00:59:37.274Z,5.40
2023-01-28T01:02:12.483Z,5.20
2023-01-28T01:04:40.550Z,4.13
2023-01-28T01:07:07.191Z,5.10
2023-01-28T01:09:33.800Z,4.53
2023-01-28T01:12:00.443Z,4.63
2023-01-28T01:14:27.342Z,4.67
2023-01-28T01:16:53.948Z,4.30
2023-01-28T01:19:20.543Z,5.30
2023-01-28T01:21:50.330Z,3.90
2023-01-28T01:24:17.259Z,4.63
2023-01-28T01:26:43.849Z,4.17
2023-01-28T01:29:10.449Z,4.70
2023-01-28T01:31:37.077Z,4.73
2023-01-28T01:34:03.682Z,4.13
2023-01-28T01:36:30.920Z,5.53
2023-01-28T01:38:57.586Z,4.97
2023-01-28T01:41:30.417Z,5.57
2023-01-28T01:43:59.829Z,6.17
2023-01-28T01:46:31.064Z,6.97
2023-01-28T01:49:02.858Z,6.00
2023-01-28T01:51:32.972Z,6.30
2023-01-28T01:54:00.742Z,5.60
2023-01-28T01:56:34.461Z,6.60
2023-01-28T01:59:01.803Z,6.00
2023-01-28T02:01:31.586Z,6.00
2023-01-28T02:04:20.451Z,6.80
2023-01-28T02:06:48.184Z,5.27
2023-01-28T02:09:32.367Z,5.70
2023-01-28T02:12:25.141Z,5.80
2023-01-28T02:14:56.653Z,5.70
2023-01-28T02:17:24.264Z,6.13
2023-01-28T02:20:22.874Z,7.40
2023-01-28T02:23:27.835Z,6.67
2023-01-28T02:26:10.554Z,6.60
2023-01-28T02:28:51.931Z,6.07
2023-01-28T02:31:29.526Z,6.20
2023-01-28T02:34:32.835Z,7.40
2023-01-28T02:37:06.254Z,6.20
2023-01-28T02:39:40.711Z,6.07
2023-01-28T02:42:13.590Z,8.00
2023-01-28T02:44:40.147Z,6.27
2023-01-28T02:47:32.625Z,7.57
2023-01-28T02:50:04.225Z,7.43
2023-01-28T02:53:07.852Z,7.30
2023-01-28T02:56:19.084Z,7.27
2023-01-28T02:58:56.548Z,7.17
2023-01-28T03:01:39.050Z,7.23
2023-01-28T03:04:51.580Z,7.50
2023-01-28T03:07:19.749Z,7.53
2023-01-28T03:09:48.459Z,7.03
2023-01-28T03:12:43.007Z,7.40
2023-01-28T03:15:58.040Z,6.73
2023-01-28T03:18:49.121Z,7.93
2023-01-28T03:21:53.192Z,7.17
2023-01-28T03:24:53.791Z,8.40
2023-01-28T03:27:47.769Z,8.20
2023-01-28T03:30:41.290Z,7.50
2023-01-28T03:33:27.042Z,7.90
2023-01-28T03:36:12.344Z,7.23
2023-01-28T03:38:48.327Z,7.10
2023-01-28T03:41:23.130Z,7.10
2023-01-28T03:43:50.800Z,7.50
2023-01-28T03:46:18.327Z,7.20
2023-01-28T03:48:45.288Z,6.93
2023-01-28T03:51:12.514Z,6.57
2023-01-28T03:53:40.242Z,7.20
2023-01-28T03:56:07.230Z,7.10
2023-01-28T03:58:52.235Z,6.90
2023-01-28T04:01:19.973Z,7.27
2023-01-28T04:03:46.713Z,7.07
2023-01-28T04:06:13.892Z,7.43
2023-01-28T04:08:46.011Z,7.40
2023-01-28T04:11:15.674Z,6.57
2023-01-28T04:13:43.087Z,7.07
2023-01-28T04:16:14.825Z,7.00
2023-01-28T04:18:41.967Z,8.30
2023-01-28T04:21:08.945Z,8.60
2023-01-28T04:23:35.887Z,7.20
2023-01-28T04:26:03.950Z,7.80
2023-01-28T04:28:31.086Z,6.97
2023-01-28T04:30:57.760Z,7.97
2023-01-28T04:33:24.368Z,7.50
2023-01-28T04:35:50.924Z,7.13
2023-01-28T04:38:17.493Z,8.17
2023-01-28T04:40:44.029Z,7.40
2023-01-28T04:43:10.601Z,7.60
2023-01-28T04:45:37.153Z,6.60
2023-01-28T04:48:03.779Z,6.73
2023-01-28T04:50:30.359Z,7.80
2023-01-28T04:52:56.947Z,7.83
2023-01-28T04:55:23.485Z,6.80
2023-01-28T04:57:50.020Z,9.27
2023-01-28T05:00:17.149Z,7.60
2023-01-28T05:02:43.745Z,8.57
2023-01-28T05:05:10.372Z,7.77
2023-01-28T05:07:37.311Z,7.93
2023-01-28T05:10:04.891Z,8.80
2023-01-28T05:12:32.931Z,8.53
2023-01-28T05:15:00.613Z,9.10
2023-01-28T05:17:28.191Z,8.83
2023-01-28T05:19:54.784Z,8.77
2023-01-28T05:22:21.409Z,8.10
2023-01-28T05:24:47.956Z,9.33
2023-01-28T05:27:14.483Z,9.00
2023-01-28T05:29:41.070Z,8.80
2023-01-28T05:32:07.703Z,8.63
2023-01-28T05:34:34.370Z,8.53
2023-01-28T05:37:01.159Z,9.97
2023-01-28T05:39:27.751Z,9.00
2023-01-28T05:41:54.303Z,9.20
2023-01-28T05:44:20.893Z,10.20
2023-01-28T05:46:47.659Z,9.13
2023-01-28T05:49:14.351Z,9.07
2023-01-28T05:51:41.295Z,9.50
2023-01-28T05:54:08.752Z,8.87
2023-01-28T05:56:36.430Z,8.53
2023-01-28T05:59:04.047Z,9.37
2023-01-28T06:01:30.649Z,8.10
2023-01-28T06:03:57.326Z,9.43
2023-01-28T06:06:23.905Z,9.40
2023-01-28T06:08:50.527Z,9.17
2023-01-28T06:11:18.961Z,9.10
2023-01-28T06:13:46.233Z,7.70
2023-01-28T06:16:13.073Z,8.50
2023-01-28T06:18:41.181Z,8.73
2023-01-28T06:21:08.024Z,8.60
2023-01-28T06:23:34.546Z,8.40
2023-01-28T06:26:01.105Z,7.60
2023-01-28T06:28:27.862Z,8.30
2023-01-28T06:30:54.848Z,8.20
2023-01-28T06:33:22.153Z,8.80
2023-01-28T06:35:48.718Z,8.10
2023-01-28T06:38:15.364Z,9.17
2023-01-28T06:40:42.195Z,9.90
2023-01-28T06:43:08.716Z,8.03
2023-01-28T06:45:35.357Z,10.10
2023-01-28T06:48:03.406Z,8.47
2023-01-28T06:50:30.642Z,8.27
2023-01-28T06:52:57.166Z,8.20
2023-01-28T06:55:23.729Z,8.60
2023-01-28T06:57:50.254Z,8.23
2023-01-28T07:00:17.738Z,8.30
2023-01-28T07:02:44.537Z,9.03
2023-01-28T07:05:11.572Z,8.50
2023-01-28T07:07:40.760Z,7.90
2023-01-28T07:10:08.972Z,9.13
2023-01-28T07:12:35.518Z,8.47
2023-01-28T07:15:02.141Z,7.90
2023-01-28T07:17:28.759Z,7.87
2023-01-28T07:19:55.347Z,8.13
2023-01-28T07:22:21.979Z,8.43
2023-01-28T07:24:48.544Z,8.67
2023-01-28T07:27:15.477Z,8.73
2023-01-28T07:29:42.053Z,9.57
2023-01-28T07:32:08.696Z,9.23
2023-01-28T07:34:38.430Z,8.00
2023-01-28T07:37:06.572Z,8.73
2023-01-28T07:39:33.193Z,8.30
2023-01-28T07:41:59.770Z,8.90
2023-01-28T07:44:26.423Z,8.00
2023-01-28T07:46:53.827Z,9.83
2023-01-28T07:49:23.265Z,9.83
2023-01-28T07:51:50.947Z,8.87
2023-01-28T07:54:17.702Z,8.70
2023-01-28T07:56:44.304Z,8.50
2023-01-28T07:59:10.908Z,9.27
2023-01-28T08:01:37.659Z,9.40
2023-01-28T08:04:04.380Z,8.33
2023-01-28T08:06:31.312Z,9.30
2023-01-28T08:08:57.870Z,7.83
2023-01-28T08:11:24.427Z,9.30
2023-01-28T08:13:51.109Z,9.10
2023-01-28T08:16:17.689Z,9.70
2023-01-28T08:18:44.297Z,8.90
2023-01-28T08:21:10.847Z,9.47
2023-01-28T08:23:38.079Z,8.83
2023-01-28T08:26:04.696Z,8.60
2023-01-28T08:28:32.005Z,9.00
2023-01-28T08:31:01.474Z,8.20
2023-01-28T08:33:28.436Z,8.03
2023-01-28T08:35:55.068Z,8.10
2023-01-28T08:38:21.751Z,8.47
2023-01-28T08:40:50.440Z,8.50
2023-01-28T08:43:17.095Z,8.70
2023-01-28T08:45:43.675Z,8.53
2023-01-28T08:48:14.634Z,8.23
2023-01-28T08:50:41.289Z,7.97
2023-01-28T08:53:11.674Z,8.80
2023-01-28T08:55:38.709Z,8.70
2023-01-28T08:58:07.159Z,7.73
2023-01-28T09:00:34.546Z,7.33
2023-01-28T09:03:01.961Z,8.20
2023-01-28T09:05:31.957Z,7.87
2023-01-28T09:08:05.854Z,7.20
2023-01-28T09:10:32.564Z,7.30
2023-01-28T09:12:59.192Z,7.67
2023-01-28T09:15:25.766Z,6.40
2023-01-28T09:17:57.998Z,7.57
2023-01-28T09:20:24.817Z,6.37
2023-01-28T09:22:52.963Z,7.43
2023-01-28T09:25:19.860Z,7.53
2023-01-28T09:27:46.560Z,7.73
2023-01-28T09:30:14.270Z,7.57
2023-01-28T09:32:41.078Z,7.60
2023-01-28T09:35:09.805Z,7.17
2023-01-28T09:37:36.443Z,8.00
2023-01-28T09:40:03.830Z,8.47
2023-01-28T09:42:58.971Z,9.30
2023-01-28T09:45:36.826Z,8.10
2023-01-28T09:48:06.436Z,8.10
2023-01-28T09:50:38.470Z,8.33
2023-01-28T09:53:13.654Z,8.23
2023-01-28T09:55:45.958Z,8.50
2023-01-28T09:58:15.907Z,8.43
2023-01-28T10:00:52.702Z,8.17
2023-01-28T10:03:19.271Z,8.50
2023-01-28T10:05:53.680Z,8.70
2023-01-28T10:08:41.976Z,9.00
2023-01-28T10:11:39.551Z,8.53
2023-01-28T10:14:47.781Z,8.80
2023-01-28T10:17:42.152Z,8.30
2023-01-28T10:20:11.826Z,8.57
2023-01-28T10:23:07.413Z,8.93
2023-01-28T10:25:35.744Z,7.97
2023-01-28T10:28:03.032Z,7.90
2023-01-28T10:30:35.051Z,9.93
2023-01-28T10:33:10.541Z,7.40
2023-01-28T10:35:41.780Z,8.80
2023-01-28T10:38:13.465Z,10.17
2023-01-28T10:40:42.532Z,8.67
2023-01-28T10:43:09.588Z,9.40
2023-01-28T10:45:59.143Z,9.70
2023-01-28T10:48:42.197Z,8.47
2023-01-28T10:51:08.751Z,9.23
2023-01-28T10:53:40.948Z,8.60
2023-01-28T10:56:10.860Z,8.80
2023-01-28T10:58:59.727Z,8.93
2023-01-28T11:01:45.272Z,9.40
2023-01-28T11:04:27.331Z,9.20
2023-01-28T11:07:01.990Z,9.20
2023-01-28T11:09:38.342Z,8.20
2023-01-28T11:12:20.229Z,9.60
2023-01-28T11:15:04.946Z,9.10
2023-01-28T11:17:35.825Z,10.47
2023-01-28T11:20:19.145Z,9.07
2023-01-28T11:22:46.202Z,9.23
2023-01-28T11:25:23.806Z,9.70
2023-01-28T11:27:53.258Z,10.20
2023-01-28T11:30:40.665Z,10.00
2023-01-28T11:33:23.570Z,10.27
2023-01-28T11:35:55.283Z,11.33
2023-01-28T11:38:25.694Z,9.57
2023-01-28T11:40:57.265Z,9.03
2023-01-28T11:43:26.277Z,10.00
2023-01-28T11:46:08.821Z,8.60
2023-01-28T11:48:53.546Z,9.17
2023-01-28T11:51:45.185Z,8.90
2023-01-28T11:54:29.697Z,9.77
2023-01-28T11:57:34.942Z,9.53
2023-01-28T12:00:32.571Z,8.83
2023-01-28T12:03:24.844Z,10.40
2023-01-28T12:06:19.954Z,10.67
2023-01-28T12:09:13.325Z,11.30
2023-01-28T12:12:10.451Z,9.33
2023-01-28T12:15:01.791Z,8.30
2023-01-28T12:17:42.442Z,8.60
2023-01-28T12:20:45.890Z,9.03
2023-01-28T12:23:35.649Z,9.00
2023-01-28T12:26:49.576Z,9.30
2023-01-28T12:29:33.807Z,10.60
2023-01-28T12:32:31.398Z,9.43
2023-01-28T12:35:35.494Z,9.90
2023-01-28T12:38:15.429Z,10.03
2023-01-28T12:41:15.462Z,10.10
2023-01-28T12:43:56.940Z,9.63
2023-01-28T12:46:39.023Z,10.17
2023-01-28T12:49:19.261Z,8.80
2023-01-28T12:52:20.048Z,10.00
2023-01-28T12:55:06.320Z,9.70
2023-01-28T12:57:35.251Z,10.80
2023-01-28T13:00:39.403Z,10.00
2023-01-28T13:03:28.521Z,8.93
2023-01-28T13:06:07.164Z,9.93
2023-01-28T13:08:34.021Z,9.43
2023-01-28T13:11:04.001Z,8.73
2023-01-28T13:13:44.744Z,7.83
2023-01-28T13:16:16.672Z,8.80
2023-01-28T13:18:46.270Z,9.27
2023-01-28T13:21:47.443Z,9.03
2023-01-28T13:24:15.572Z,11.67
2023-01-28T13:27:12.319Z,14.50
2023-01-28T13:29:38.969Z,10.77
2023-01-28T13:32:32.805Z,8.97
2023-01-28T13:35:25.338Z,9.37
2023-01-28T13:37:51.986Z,9.60
2023-01-28T13:40:28.358Z,10.20
2023-01-28T13:43:06.815Z,9.43
2023-01-28T13:45:34.634Z,8.70
2023-01-28T13:48:13.421Z,9.97
2023-01-28T13:50:42.696Z,10.20
2023-01-28T13:53:27.765Z,9.70
2023-01-28T13:55:58.997Z,9.50
2023-01-28T13:59:03.686Z,11.90
2023-01-28T14:02:07.695Z,9.40
2023-01-28T14:04:54.480Z,10.30
2023-01-28T14:07:58.582Z,9.90
2023-01-28T14:10:39.067Z,9.83
2023-01-28T14:13:40.796Z,9.40
2023-01-28T14:16:30.850Z,10.60
2023-01-28T14:19:01.409Z,11.10
2023-01-28T14:21:31.929Z,9.97
2023-01-28T14:23:59.997Z,10.60
2023-01-28T14:26:39.055Z,9.37
2023-01-28T14:29:31.516Z,9.90
2023-01-28T14:31:58.955Z,10.07
2023-01-28T14:34:31.923Z,9.07
2023-01-28T14:37:12.987Z,9.17
2023-01-28T14:39:47.930Z,9.50
2023-01-28T14:42:21.559Z,10.23
2023-01-28T14:44:58.762Z,9.50
2023-01-28T14:47:59.000Z,9.93
2023-01-28T14:51:22.432Z,8.23
2023-01-28T14:54:13.403Z,10.40
2023-01-28T14:57:00.946Z,10.27
2023-01-28T14:59:37.435Z,9.33
2023-01-28T15:02:17.713Z,9.63
2023-01-28T15:04:44.408Z,10.70
2023-01-28T15:07:24.107Z,8.97
2023-01-28T15:10:20.692Z,9.87
2023-01-28T15:13:07.482Z,9.40
2023-01-28T15:15:36.978Z,9.90
2023-01-28T15:18:12.578Z,10.30
2023-01-28T15:20:43.334Z,10.13
2023-01-28T15:23:09.919Z,10.80
2023-01-28T15:25:37.087Z,10.63
2023-01-28T15:28:03.972Z,10.47
2023-01-28T15:30:32.507Z,8.70
2023-01-28T15:33:04.390Z,10.73
2023-01-28T15:35:32.942Z,10.03
2023-01-28T15:37:59.631Z,9.57
2023-01-28T15:40:26.273Z,9.83
2023-01-28T15:42:55.192Z,9.93
2023-01-28T15:45:25.918Z,10.80
2023-01-28T15:48:01.581Z,9.37
2023-01-28T15:50:28.440Z,9.50
2023-01-28T15:52:55.465Z,10.20
2023-01-28T15:55:36.769Z,9.10
2023-01-28T15:58:12.240Z,9.50
2023-01-28T16:00:39.052Z,10.97
2023-01-28T16:03:09.987Z,11.30
2023-01-28T16:05:40.244Z,10.80
2023-01-28T16:08:26.359Z,10.93
2023-01-28T16:10:55.502Z,10.07
2023-01-28T16:13:24.866Z,10.60
2023-01-28T16:15:56.356Z,11.90
2023-01-28T16:18:38.466Z,12.20
2023-01-28T16:21:10.193Z,12.83
2023-01-28T16:23:39.509Z,12.63
2023-01-28T16:26:21.313Z,11.60
2023-01-28T16:28:47.914Z,11.30
2023-01-28T16:31:14.702Z,11.53
2023-01-28T16:33:41.522Z,11.30
2023-01-28T16:36:13.834Z,12.20
2023-01-28T16:38:40.969Z,12.30
2023-01-28T16:41:22.710Z,12.60
2023-01-28T16:43:49.362Z,12.60
2023-01-28T16:46:16.094Z,14.83
2023-01-28T16:48:42.636Z,12.70
2023-01-28T16:51:18.021Z,13.43
2023-01-28T16:53:47.577Z,13.90
2023-01-28T16:56:35.843Z,14.00
2023-01-28T16:59:10.429Z,15.10
2023-01-28T17:01:37.268Z,13.53
2023-01-28T17:04:11.500Z,14.30
2023-01-28T17:06:41.918Z,15.97
2023-01-28T17:09:08.616Z,14.20
2023-01-28T17:11:35.676Z,14.97
2023-01-28T17:14:02.607Z,15.80
2023-01-28T17:16:29.343Z,13.77
2023-01-28T17:18:56.101Z,13.43
2023-01-28T17:21:22.787Z,15.00
2023-01-28T17:23:49.850Z,13.90
2023-01-28T17:26:17.163Z,13.23
2023-01-28T17:28:44.152Z,13.40
2023-01-28T17:31:13.268Z,15.50
2023-01-28T17:33:41.188Z,14.43
2023-01-28T17:36:08.841Z,15.37
2023-01-28T17:38:35.817Z,14.23
2023-01-28T17:41:08.161Z,14.70
2023-01-28T17:43:34.943Z,15.30
2023-01-28T17:46:09.661Z,15.80
2023-01-28T17:48:36.326Z,13.23
2023-01-28T17:51:02.985Z,14.80
2023-01-28T17:53:29.552Z,14.00
2023-01-28T17:55:56.197Z,14.07
2023-01-28T17:58:22.863Z,15.87
2023-01-28T18:00:49.446Z,16.17
2023-01-28T18:03:16.346Z,16.90
2023-01-28T18:05:42.957Z,18.90
2023-01-28T18:08:09.731Z,18.50
2023-01-28T18:10:36.464Z,23.77
2023-01-28T18:13:03.241Z,21.53
2023-01-28T18:15:29.914Z,20.73
2023-01-28T18:17:56.523Z,19.53
2023-01-28T18:20:23.099Z,19.53
2023-01-28T18:22:49.725Z,19.97
2023-01-28T18:25:18.729Z,22.10
2023-01-28T18:27:45.978Z,20.87
2023-01-28T18:30:14.084Z,22.90
2023-01-28T18:32:40.984Z,21.90
2023-01-28T18:35:07.966Z,21.90
2023-01-28T18:37:34.541Z,20.80
2023-01-28T18:40:01.156Z,24.37
2023-01-28T18:42:27.860Z,19.40
2023-01-28T18:44:54.446Z,21.57
2023-01-28T18:47:22.357Z,22.33
2023-01-28T18:49:49.683Z,19.93
2023-01-28T18:52:16.655Z,20.93
2023-01-28T18:54:43.231Z,20.00
2023-01-28T18:57:09.842Z,19.40
2023-01-28T18:59:36.402Z,20.13
2023-01-28T19:02:03.205Z,19.80
2023-01-28T19:04:30.032Z,19.03
2023-01-28T19:06:57.281Z,21.40
2023-01-28T19:09:23.987Z,20.60
2023-01-28T19:11:50.902Z,22.40
2023-01-28T19:14:17.807Z,22.87
2023-01-28T19:16:44.479Z,22.27
2023-01-28T19:19:12.108Z,20.30
2023-01-28T19:21:38.859Z,22.17
2023-01-28T19:24:09.525Z,28.10
2023-01-28T19:26:36.996Z,26.70
2023-01-28T19:29:06.684Z,29.60
2023-01-28T19:31:33.318Z,26.50
2023-01-28T19:34:00.659Z,23.43
2023-01-28T19:36:29.803Z,22.97
2023-01-28T19:39:01.289Z,23.67
2023-01-28T19:41:28.856Z,22.43
2023-01-28T19:43:56.663Z,22.37
2023-01-28T19:46:23.299Z,22.93
2023-01-28T19:48:49.870Z,21.43
2023-01-28T19:51:17.177Z,24.50
2023-01-28T19:53:44.736Z,23.57
2023-01-28T19:56:14.140Z,25.00
2023-01-28T19:58:42.437Z,24.20
2023-01-28T20:01:15.545Z,26.53
2023-01-28T20:03:42.872Z,23.17
2023-01-28T20:06:15.577Z,24.73
2023-01-28T20:08:43.634Z,25.40
2023-01-28T20:11:15.734Z,28.50
2023-01-28T20:13:44.579Z,25.80
2023-01-28T20:16:19.175Z,23.90
2023-01-28T20:18:55.171Z,23.47
2023-01-28T20:21:22.019Z,23.77
2023-01-28T20:23:50.077Z,24.47
2023-01-28T20:26:17.187Z,23.83
2023-01-28T20:28:43.905Z,23.00
2023-01-28T20:31:11.071Z,24.67
2023-01-28T20:33:38.445Z,22.27
2023-01-28T20:36:07.724Z,22.03
2023-01-28T20:38:36.176Z,25.27
2023-01-28T20:41:07.805Z,23.30
2023-01-28T20:43:38.612Z,23.10
2023-01-28T20:46:07.226Z,22.10
2023-01-28T20:48:34.517Z,23.27
2023-01-28T20:51:09.290Z,22.80
2023-01-28T20:53:35.920Z,24.77
2023-01-28T20:56:02.758Z,23.23
2023-01-28T20:58:29.494Z,26.53
2023-01-28T21:00:56.249Z,24.93
2023-01-28T21:03:22.981Z,24.67
2023-01-28T21:05:49.931Z,24.87
2023-01-28T21:08:16.546Z,23.37
2023-01-28T21:10:43.168Z,24.50
2023-01-28T21:13:11.276Z,26.03
2023-01-28T21:15:38.420Z,24.67
2023-01-28T21:18:05.561Z,26.30
2023-01-28T21:20:33.371Z,26.23
2023-01-28T21:22:59.987Z,30.63
2023-01-28T21:25:26.940Z,28.50
2023-01-28T21:27:53.939Z,28.43
2023-01-28T21:30:20.652Z,22.77
2023-01-28T21:32:47.185Z,21.83
2023-01-28T21:35:13.923Z,23.37
2023-01-28T21:37:45.916Z,23.43
2023-01-28T21:40:12.942Z,23.70
2023-01-28T21:42:39.510Z,24.50
2023-01-28T21:45:06.748Z,23.63
2023-01-28T21:47:33.284Z,24.33
2023-01-28T21:50:02.849Z,23.40
2023-01-28T21:52:29.416Z,22.17
2023-01-28T21:54:56.222Z,23.80
2023-01-28T21:57:22.841Z,26.70
2023-01-28T21:59:49.417Z,24.77
2023-01-28T22:02:16.022Z,26.23
2023-01-28T22:04:46.177Z,25.10
2023-01-28T22:07:17.127Z,27.57
2023-01-28T22:09:47.732Z,25.97
2023-01-28T22:12:21.998Z,25.60
2023-01-28T22:14:50.081Z,25.87
2023-01-28T22:17:19.012Z,26.47
2023-01-28T22:19:47.962Z,28.80
2023-01-28T22:22:15.927Z,28.27
2023-01-28T22:24:42.546Z,27.50
2023-01-28T22:27:09.318Z,25.83
2023-01-28T22:29:35.869Z,26.70
2023-01-28T22:32:04.640Z,28.00
2023-01-28T22:34:31.623Z,25.70
2023-01-28T22:37:00.153Z,27.30
2023-01-28T22:39:26.737Z,26.37
2023-01-28T22:41:53.319Z,28.80
2023-01-28T22:44:20.186Z,28.17
2023-01-28T22:46:47.600Z,28.43
2023-01-28T22:49:14.998Z,25.23
2023-01-28T22:51:42.217Z,28.40
2023-01-28T22:54:11.261Z,26.97
2023-01-28T22:56:38.387Z,26.63
2023-01-28T22:59:05.022Z,27.77
2023-01-28T23:01:32.010Z,23.87
2023-01-28T23:03:59.084Z,24.33
2023-01-28T23:06:27.524Z,24.27
2023-01-28T23:08:56.069Z,24.23
2023-01-28T23:11:27.046Z,24.80
2023-01-28T23:14:14.415Z,24.40
2023-01-28T23:16:59.884Z,24.27
2023-01-28T23:19:45.440Z,24.13
2023-01-28T23:22:44.993Z,23.87
2023-01-28T23:25:12.175Z,25.60
2023-01-28T23:27:38.787Z,26.30
2023-01-28T23:30:09.833Z,25.53
2023-01-28T23:32:43.906Z,24.23
2023-01-28T23:35:12.063Z,23.73
2023-01-28T23:37:38.822Z,22.90
2023-01-28T23:40:06.717Z,22.77
2023-01-28T23:42:33.372Z,22.57
2023-01-28T23:45:00.042Z,27.30
2023-01-28T23:47:26.726Z,27.40
2023-01-28T23:49:53.472Z,27.37
2023-01-28T23:52:20.012Z,26.90
2023-01-28T23:54:46.642Z,24.70
2023-01-28T23:57:13.288Z,22.83
2023-01-28T23:59:40.011Z,22.93
